sensor_id;sensor_type;location;lat;lon;timestamp;pressure;altitude;pressure_sealevel;temperature;humidity
46942;BME280;32676;52.630;4.896;2022-10-16T00:00:44;101083.06;;;13.22;83.01
46942;BME280;32676;52.630;4.896;2022-10-16T00:03:11;101075.31;;;13.18;82.69
46942;BME280;32676;52.630;4.896;2022-10-16T00:05:39;101077.09;;;13.17;82.49
46942;BME280;32676;52.630;4.896;2022-10-16T00:08:07;101074.69;;;13.11;82.60
46942;BME280;32676;52.630;4.896;2022-10-16T00:10:33;101058.25;;;13.04;82.38
46942;BME280;32676;52.630;4.896;2022-10-16T00:13:00;101103.19;;;13.25;82.52
46942;BME280;32676;52.630;4.896;2022-10-16T00:15:27;101102.25;;;13.26;82.41
46942;BME280;32676;52.630;4.896;2022-10-16T00:17:54;101115.34;;;13.29;82.05
46942;BME280;32676;52.630;4.896;2022-10-16T00:20:21;101108.47;;;13.25;82.08
46942;BME280;32676;52.630;4.896;2022-10-16T00:22:47;101116.38;;;13.25;81.94
46942;BME280;32676;52.630;4.896;2022-10-16T00:25:14;101135.38;;;13.35;81.60
46942;BME280;32676;52.630;4.896;2022-10-16T00:27:40;101136.38;;;13.32;81.79
46942;BME280;32676;52.630;4.896;2022-10-16T00:30:08;101158.13;;;13.39;81.33
46942;BME280;32676;52.630;4.896;2022-10-16T00:32:34;101155.53;;;13.37;81.45
46942;BME280;32676;52.630;4.896;2022-10-16T00:35:03;101151.16;;;13.36;81.55
46942;BME280;32676;52.630;4.896;2022-10-16T00:37:29;101143.34;;;13.33;81.45
46942;BME280;32676;52.630;4.896;2022-10-16T00:39:56;101153.06;;;13.33;81.40
46942;BME280;32676;52.630;4.896;2022-10-16T00:42:23;101148.63;;;13.33;81.22
46942;BME280;32676;52.630;4.896;2022-10-16T00:44:51;101147.56;;;13.39;81.07
46942;BME280;32676;52.630;4.896;2022-10-16T00:47:21;101149.38;;;13.37;80.96
46942;BME280;32676;52.630;4.896;2022-10-16T00:49:50;101139.81;;;13.34;80.51
46942;BME280;32676;52.630;4.896;2022-10-16T00:52:20;101132.78;;;13.33;80.57
46942;BME280;32676;52.630;4.896;2022-10-16T00:54:49;101107.63;;;13.24;80.46
46942;BME280;32676;52.630;4.896;2022-10-16T00:57:16;101103.06;;;13.28;80.48
46942;BME280;32676;52.630;4.896;2022-10-16T00:59:43;101083.34;;;13.15;80.48
46942;BME280;32676;52.630;4.896;2022-10-16T01:02:11;101081.31;;;13.21;80.26
46942;BME280;32676;52.630;4.896;2022-10-16T01:04:39;101083.91;;;13.23;80.75
46942;BME280;32676;52.630;4.896;2022-10-16T01:07:12;101055.31;;;13.12;80.45
46942;BME280;32676;52.630;4.896;2022-10-16T01:09:47;101017.19;;;12.97;80.46
46942;BME280;32676;52.630;4.896;2022-10-16T01:12:23;101017.88;;;13.02;80.76
46942;BME280;32676;52.630;4.896;2022-10-16T01:14:58;101034.19;;;13.12;80.59
46942;BME280;32676;52.630;4.896;2022-10-16T01:17:28;101024.59;;;13.10;80.47
46942;BME280;32676;52.630;4.896;2022-10-16T01:20:07;101014.19;;;13.06;80.73
46942;BME280;32676;52.630;4.896;2022-10-16T01:22:43;100999.41;;;13.02;80.39
46942;BME280;32676;52.630;4.896;2022-10-16T01:25:14;100978.44;;;12.99;80.47
46942;BME280;32676;52.630;4.896;2022-10-16T01:27:45;100963.66;;;12.95;80.54
46942;BME280;32676;52.630;4.896;2022-10-16T01:30:15;100956.66;;;12.94;80.77
46942;BME280;32676;52.630;4.896;2022-10-16T01:32:47;100950.53;;;12.94;80.62
46942;BME280;32676;52.630;4.896;2022-10-16T01:35:19;100920.47;;;12.76;80.83
46942;BME280;32676;52.630;4.896;2022-10-16T01:37:50;100954.91;;;12.93;80.60
46942;BME280;32676;52.630;4.896;2022-10-16T01:40:19;100944.50;;;12.90;80.65
46942;BME280;32676;52.630;4.896;2022-10-16T01:42:50;100924.59;;;12.83;81.05
46942;BME280;32676;52.630;4.896;2022-10-16T01:45:19;100928.81;;;12.87;80.78
46942;BME280;32676;52.630;4.896;2022-10-16T01:47:48;100921.78;;;12.86;80.82
46942;BME280;32676;52.630;4.896;2022-10-16T01:50:17;100910.53;;;12.82;80.87
46942;BME280;32676;52.630;4.896;2022-10-16T01:52:47;100902.69;;;12.81;80.66
46942;BME280;32676;52.630;4.896;2022-10-16T01:55:18;100913.19;;;12.82;80.66
46942;BME280;32676;52.630;4.896;2022-10-16T01:57:49;100907.81;;;12.84;80.64
46942;BME280;32676;52.630;4.896;2022-10-16T02:00:19;100927.06;;;12.86;80.13
46942;BME280;32676;52.630;4.896;2022-10-16T02:02:49;100924.38;;;12.87;80.49
46942;BME280;32676;52.630;4.896;2022-10-16T02:05:20;100907.44;;;12.71;80.21
46942;BME280;32676;52.630;4.896;2022-10-16T02:07:48;100940.94;;;12.91;80.03
46942;BME280;32676;52.630;4.896;2022-10-16T02:10:16;100937.88;;;12.80;80.02
46942;BME280;32676;52.630;4.896;2022-10-16T02:12:45;100937.56;;;12.87;79.85
46942;BME280;32676;52.630;4.896;2022-10-16T02:15:15;100937.63;;;12.86;79.90
46942;BME280;32676;52.630;4.896;2022-10-16T02:17:42;100935.91;;;12.85;79.69
46942;BME280;32676;52.630;4.896;2022-10-16T02:20:09;100918.63;;;12.78;79.73
46942;BME280;32676;52.630;4.896;2022-10-16T02:22:39;100935.81;;;12.88;79.71
46942;BME280;32676;52.630;4.896;2022-10-16T02:25:08;100893.75;;;12.63;80.15
46942;BME280;32676;52.630;4.896;2022-10-16T02:27:41;100917.50;;;12.83;79.78
46942;BME280;32676;52.630;4.896;2022-10-16T02:30:17;100907.97;;;12.81;80.28
46942;BME280;32676;52.630;4.896;2022-10-16T02:32:47;100897.41;;;12.81;79.87
46942;BME280;32676;52.630;4.896;2022-10-16T02:35:17;100888.72;;;12.79;80.37
46942;BME280;32676;52.630;4.896;2022-10-16T02:37:45;100863.63;;;12.68;80.18
46942;BME280;32676;52.630;4.896;2022-10-16T02:40:12;100841.31;;;12.55;80.36
46942;BME280;32676;52.630;4.896;2022-10-16T02:42:40;100858.25;;;12.72;80.64
46942;BME280;32676;52.630;4.896;2022-10-16T02:45:09;100857.41;;;12.70;80.78
46942;BME280;32676;52.630;4.896;2022-10-16T02:47:37;100851.25;;;12.71;80.84
46942;BME280;32676;52.630;4.896;2022-10-16T02:50:05;100849.78;;;12.63;81.05
46942;BME280;32676;52.630;4.896;2022-10-16T02:52:31;100868.69;;;12.73;81.07
46942;BME280;32676;52.630;4.896;2022-10-16T02:54:57;100831.81;;;12.51;81.55
46942;BME280;32676;52.630;4.896;2022-10-16T02:57:24;100871.28;;;12.75;81.58
46942;BME280;32676;52.630;4.896;2022-10-16T02:59:50;100861.09;;;12.65;81.81
46942;BME280;32676;52.630;4.896;2022-10-16T03:02:17;100885.25;;;12.77;82.05
46942;BME280;32676;52.630;4.896;2022-10-16T03:04:45;100879.97;;;12.77;81.70
46942;BME280;32676;52.630;4.896;2022-10-16T03:07:11;100866.38;;;12.65;82.29
46942;BME280;32676;52.630;4.896;2022-10-16T03:09:37;100863.00;;;12.62;82.37
46942;BME280;32676;52.630;4.896;2022-10-16T03:12:04;100879.97;;;12.77;82.22
46942;BME280;32676;52.630;4.896;2022-10-16T03:14:31;100886.97;;;12.78;82.35
46942;BME280;32676;52.630;4.896;2022-10-16T03:16:57;100892.25;;;12.78;82.70
46942;BME280;32676;52.630;4.896;2022-10-16T03:19:24;100896.53;;;12.80;82.94
46942;BME280;32676;52.630;4.896;2022-10-16T03:21:52;100880.72;;;12.58;82.72
46942;BME280;32676;52.630;4.896;2022-10-16T03:24:18;100919.16;;;12.86;83.21
46942;BME280;32676;52.630;4.896;2022-10-16T03:26:45;100929.66;;;12.87;83.76
46942;BME280;32676;52.630;4.896;2022-10-16T03:29:11;100913.09;;;12.84;84.18
46942;BME280;32676;52.630;4.896;2022-10-16T03:31:38;100907.03;;;12.82;84.65
46942;BME280;32676;52.630;4.896;2022-10-16T03:34:04;100885.50;;;12.71;85.15
46942;BME280;32676;52.630;4.896;2022-10-16T03:36:31;100892.25;;;12.78;85.44
46942;BME280;32676;52.630;4.896;2022-10-16T03:38:59;100902.69;;;12.81;85.77
46942;BME280;32676;52.630;4.896;2022-10-16T03:41:25;100907.09;;;12.80;86.10
46942;BME280;32676;52.630;4.896;2022-10-16T03:43:52;100901.81;;;12.80;86.21
46942;BME280;32676;52.630;4.896;2022-10-16T03:46:18;100890.53;;;12.77;86.10
46942;BME280;32676;52.630;4.896;2022-10-16T03:48:45;100861.38;;;12.59;86.38
46942;BME280;32676;52.630;4.896;2022-10-16T03:51:11;100885.25;;;12.77;86.63
46942;BME280;32676;52.630;4.896;2022-10-16T03:53:39;100858.66;;;12.61;86.34
46942;BME280;32676;52.630;4.896;2022-10-16T03:56:07;100888.81;;;12.76;86.37
46942;BME280;32676;52.630;4.896;2022-10-16T03:58:33;100869.94;;;12.64;86.02
46942;BME280;32676;52.630;4.896;2022-10-16T04:01:00;100888.81;;;12.76;86.16
46942;BME280;32676;52.630;4.896;2022-10-16T04:03:26;100882.69;;;12.75;86.31
46942;BME280;32676;52.630;4.896;2022-10-16T04:05:53;100869.81;;;12.67;86.11
46942;BME280;32676;52.630;4.896;2022-10-16T04:08:20;100889.72;;;12.75;86.34
46942;BME280;32676;52.630;4.896;2022-10-16T04:10:46;100880.13;;;12.74;86.78
46942;BME280;32676;52.630;4.896;2022-10-16T04:13:14;100885.41;;;12.74;86.63
46942;BME280;32676;52.630;4.896;2022-10-16T04:15:41;100861.09;;;12.65;87.07
46942;BME280;32676;52.630;4.896;2022-10-16T04:18:08;100867.31;;;12.64;87.25
46942;BME280;32676;52.630;4.896;2022-10-16T04:20:34;100876.81;;;12.68;86.90
46942;BME280;32676;52.630;4.896;2022-10-16T04:23:01;100862.09;;;12.63;87.13
46942;BME280;32676;52.630;4.896;2022-10-16T04:25:28;100859.63;;;12.58;86.95
46942;BME280;32676;52.630;4.896;2022-10-16T04:27:54;100883.66;;;12.73;87.44
46942;BME280;32676;52.630;4.896;2022-10-16T04:30:23;100867.31;;;12.64;86.90
46942;BME280;32676;52.630;4.896;2022-10-16T04:32:50;100869.69;;;12.71;87.30
46942;BME280;32676;52.630;4.896;2022-10-16T04:35:17;100818.31;;;12.37;86.92
46942;BME280;32676;52.630;4.896;2022-10-16T04:37:44;100859.31;;;12.66;86.84
46942;BME280;32676;52.630;4.896;2022-10-16T04:40:11;100849.72;;;12.65;86.83
46942;BME280;32676;52.630;4.896;2022-10-16T04:42:37;100850.63;;;12.64;87.21
46942;BME280;32676;52.630;4.896;2022-10-16T04:45:05;100842.13;;;12.57;86.96
46942;BME280;32676;52.630;4.896;2022-10-16T04:47:33;100844.50;;;12.63;87.23
46942;BME280;32676;52.630;4.896;2022-10-16T04:49:59;100828.16;;;12.55;87.58
46942;BME280;32676;52.630;4.896;2022-10-16T04:52:28;100828.88;;;12.59;87.73
46942;BME280;32676;52.630;4.896;2022-10-16T04:54:56;100785.13;;;12.33;87.61
46942;BME280;32676;52.630;4.896;2022-10-16T04:57:26;100807.28;;;12.49;87.67
46942;BME280;32676;52.630;4.896;2022-10-16T04:59:52;100807.97;;;12.54;87.68
46942;BME280;32676;52.630;4.896;2022-10-16T05:02:19;100795.97;;;12.47;87.82
46942;BME280;32676;52.630;4.896;2022-10-16T05:04:47;100800.13;;;12.53;87.76
46942;BME280;32676;52.630;4.896;2022-10-16T05:07:13;100816.72;;;12.55;87.58
46942;BME280;32676;52.630;4.896;2022-10-16T05:09:40;100824.56;;;12.56;87.31
46942;BME280;32676;52.630;4.896;2022-10-16T05:12:07;100821.94;;;12.56;86.98
46942;BME280;32676;52.630;4.896;2022-10-16T05:14:33;100812.56;;;12.49;86.93
46942;BME280;32676;52.630;4.896;2022-10-16T05:17:00;100830.63;;;12.58;87.34
46942;BME280;32676;52.630;4.896;2022-10-16T05:19:26;100804.25;;;12.38;87.15
46942;BME280;32676;52.630;4.896;2022-10-16T05:21:54;100834.16;;;12.59;87.03
46942;BME280;32676;52.630;4.896;2022-10-16T05:24:20;100841.97;;;12.60;87.24
46942;BME280;32676;52.630;4.896;2022-10-16T05:26:47;100845.50;;;12.61;87.30
46942;BME280;32676;52.630;4.896;2022-10-16T05:29:13;100851.56;;;12.63;87.03
46942;BME280;32676;52.630;4.896;2022-10-16T05:31:40;100851.63;;;12.61;87.34
46942;BME280;32676;52.630;4.896;2022-10-16T05:34:06;100819.69;;;12.47;87.40
46942;BME280;32676;52.630;4.896;2022-10-16T05:36:33;100859.41;;;12.64;87.65
46942;BME280;32676;52.630;4.896;2022-10-16T05:39:01;100864.69;;;12.64;87.19
46942;BME280;32676;52.630;4.896;2022-10-16T05:41:27;100861.94;;;12.66;87.62
46942;BME280;32676;52.630;4.896;2022-10-16T05:43:54;100859.63;;;12.58;87.29
46942;BME280;32676;52.630;4.896;2022-10-16T05:46:20;100882.88;;;12.71;87.35
46942;BME280;32676;52.630;4.896;2022-10-16T05:48:47;100899.50;;;12.73;87.46
46942;BME280;32676;52.630;4.896;2022-10-16T05:51:14;100902.06;;;12.74;87.51
46942;BME280;32676;52.630;4.896;2022-10-16T05:53:41;100912.56;;;12.76;87.23
46942;BME280;32676;52.630;4.896;2022-10-16T05:56:10;100903.19;;;12.68;87.15
46942;BME280;32676;52.630;4.896;2022-10-16T05:58:38;100915.19;;;12.76;87.32
46942;BME280;32676;52.630;4.896;2022-10-16T06:01:09;100867.00;;;12.50;87.00
46942;BME280;32676;52.630;4.896;2022-10-16T06:03:35;100898.59;;;12.74;87.30
46942;BME280;32676;52.630;4.896;2022-10-16T06:06:07;100894.22;;;12.73;87.26
46942;BME280;32676;52.630;4.896;2022-10-16T06:08:34;100878.66;;;12.66;87.39
46942;BME280;32676;52.630;4.896;2022-10-16T06:11:01;100897.78;;;12.72;87.07
46942;BME280;32676;52.630;4.896;2022-10-16T06:13:29;100887.34;;;12.68;87.56
46942;BME280;32676;52.630;4.896;2022-10-16T06:15:57;100887.34;;;12.68;87.47
46942;BME280;32676;52.630;4.896;2022-10-16T06:18:24;100880.34;;;12.67;87.73
46942;BME280;32676;52.630;4.896;2022-10-16T06:20:51;100873.59;;;12.60;87.95
46942;BME280;32676;52.630;4.896;2022-10-16T06:23:18;100869.34;;;12.58;88.01
46942;BME280;32676;52.630;4.896;2022-10-16T06:25:44;100875.22;;;12.64;88.40
46942;BME280;32676;52.630;4.896;2022-10-16T06:28:11;100861.38;;;12.59;88.35
46942;BME280;32676;52.630;4.896;2022-10-16T06:30:39;100861.22;;;12.62;87.92
46942;BME280;32676;52.630;4.896;2022-10-16T06:33:05;100867.31;;;12.64;88.31
46942;BME280;32676;52.630;4.896;2022-10-16T06:35:32;100862.94;;;12.63;87.81
46942;BME280;32676;52.630;4.896;2022-10-16T06:37:58;100863.84;;;12.62;87.90
46942;BME280;32676;52.630;4.896;2022-10-16T06:40:25;100884.78;;;12.67;88.15
46942;BME280;32676;52.630;4.896;2022-10-16T06:42:54;100910.88;;;12.73;87.94
46942;BME280;32676;52.630;4.896;2022-10-16T06:45:21;100922.16;;;12.77;87.47
46942;BME280;32676;52.630;4.896;2022-10-16T06:47:48;100952.75;;;12.82;87.24
46942;BME280;32676;52.630;4.896;2022-10-16T06:50:15;100976.28;;;12.87;87.19
46942;BME280;32676;52.630;4.896;2022-10-16T06:52:41;100998.06;;;12.92;86.74
46942;BME280;32676;52.630;4.896;2022-10-16T06:55:08;101004.38;;;12.88;86.82
46942;BME280;32676;52.630;4.896;2022-10-16T06:57:34;101018.13;;;12.96;86.24
46942;BME280;32676;52.630;4.896;2022-10-16T07:00:02;100980.19;;;12.77;86.34
46942;BME280;32676;52.630;4.896;2022-10-16T07:02:28;100986.34;;;12.77;86.40
46942;BME280;32676;52.630;4.896;2022-10-16T07:04:56;101006.75;;;12.94;86.59
46942;BME280;32676;52.630;4.896;2022-10-16T07:07:23;100992.09;;;12.87;86.65
46942;BME280;32676;52.630;4.896;2022-10-16T07:09:51;101023.38;;;12.96;86.38
46942;BME280;32676;52.630;4.896;2022-10-16T07:12:18;101045.19;;;13.01;86.46
46942;BME280;32676;52.630;4.896;2022-10-16T07:14:44;101059.94;;;13.05;86.48
46942;BME280;32676;52.630;4.896;2022-10-16T07:17:11;101086.97;;;13.12;86.42
46942;BME280;32676;52.630;4.896;2022-10-16T07:19:38;101130.66;;;13.19;86.78
46942;BME280;32676;52.630;4.896;2022-10-16T07:22:06;101186.47;;;13.34;86.71
46942;BME280;32676;52.630;4.896;2022-10-16T07:24:32;101246.63;;;13.48;86.76
46942;BME280;32676;52.630;4.896;2022-10-16T07:26:59;101292.00;;;13.59;86.89
46942;BME280;32676;52.630;4.896;2022-10-16T07:29:25;101321.59;;;13.67;86.75
46942;BME280;32676;52.630;4.896;2022-10-16T07:31:52;101353.06;;;13.73;86.30
46942;BME280;32676;52.630;4.896;2022-10-16T07:34:19;101376.63;;;13.79;86.08
46942;BME280;32676;52.630;4.896;2022-10-16T07:36:48;101367.53;;;13.63;86.12
46942;BME280;32676;52.630;4.896;2022-10-16T07:39:17;101390.03;;;13.73;85.87
46942;BME280;32676;52.630;4.896;2022-10-16T07:41:44;101410.88;;;13.82;85.51
46942;BME280;32676;52.630;4.896;2022-10-16T07:44:10;101414.31;;;13.85;84.96
46942;BME280;32676;52.630;4.896;2022-10-16T07:46:37;101414.25;;;13.86;84.85
46942;BME280;32676;52.630;4.896;2022-10-16T07:49:03;101436.94;;;13.92;84.64
46942;BME280;32676;52.630;4.896;2022-10-16T07:51:30;101467.50;;;13.99;84.56
46942;BME280;32676;52.630;4.896;2022-10-16T07:53:56;101486.00;;;13.99;84.81
46942;BME280;32676;52.630;4.896;2022-10-16T07:56:25;101523.44;;;14.12;84.47
46942;BME280;32676;52.630;4.896;2022-10-16T07:58:51;101503.81;;;13.94;84.58
46942;BME280;32676;52.630;4.896;2022-10-16T08:01:19;101556.00;;;14.12;84.32
46942;BME280;32676;52.630;4.896;2022-10-16T08:03:47;101577.03;;;14.15;84.06
46942;BME280;32676;52.630;4.896;2022-10-16T08:06:14;101627.53;;;14.33;84.40
46942;BME280;32676;52.630;4.896;2022-10-16T08:08:41;101641.44;;;14.38;84.16
46942;BME280;32676;52.630;4.896;2022-10-16T08:11:08;101653.75;;;14.39;83.91
46942;BME280;32676;52.630;4.896;2022-10-16T08:13:36;101646.03;;;14.33;83.84
46942;BME280;32676;52.630;4.896;2022-10-16T08:16:03;101660.00;;;14.36;83.75
46942;BME280;32676;52.630;4.896;2022-10-16T08:18:33;101678.13;;;14.47;83.76
46942;BME280;32676;52.630;4.896;2022-10-16T08:21:00;101693.06;;;14.50;83.35
46942;BME280;32676;52.630;4.896;2022-10-16T08:23:27;101682.47;;;14.50;83.64
46942;BME280;32676;52.630;4.896;2022-10-16T08:25:54;101688.94;;;14.41;83.67
46942;BME280;32676;52.630;4.896;2022-10-16T08:28:22;101728.06;;;14.58;83.69
46942;BME280;32676;52.630;4.896;2022-10-16T08:30:50;101745.53;;;14.62;83.80
46942;BME280;32676;52.630;4.896;2022-10-16T08:33:16;101735.94;;;14.59;83.31
46942;BME280;32676;52.630;4.896;2022-10-16T08:35:50;101746.59;;;14.56;81.98
46942;BME280;32676;52.630;4.896;2022-10-16T08:38:16;101775.31;;;14.69;80.34
46942;BME280;32676;52.630;4.896;2022-10-16T08:40:43;101795.44;;;14.73;78.21
46942;BME280;32676;52.630;4.896;2022-10-16T08:43:28;101813.06;;;14.74;76.63
46942;BME280;32676;52.630;4.896;2022-10-16T08:46:15;101840.91;;;14.84;75.19
46942;BME280;32676;52.630;4.896;2022-10-16T08:48:47;101860.28;;;14.86;73.87
46942;BME280;32676;52.630;4.896;2022-10-16T08:51:19;101883.81;;;14.94;72.62
46942;BME280;32676;52.630;4.896;2022-10-16T08:53:51;101929.28;;;15.07;71.97
46942;BME280;32676;52.630;4.896;2022-10-16T08:56:19;101972.22;;;15.15;71.33
46942;BME280;32676;52.630;4.896;2022-10-16T08:58:46;101978.72;;;15.06;70.79
46942;BME280;32676;52.630;4.896;2022-10-16T09:01:17;102028.25;;;15.29;70.97
46942;BME280;32676;52.630;4.896;2022-10-16T09:03:58;102045.78;;;15.33;70.65
46942;BME280;32676;52.630;4.896;2022-10-16T09:06:41;102047.50;;;15.34;69.77
46942;BME280;32676;52.630;4.896;2022-10-16T09:09:24;102051.91;;;15.35;68.72
46942;BME280;32676;52.630;4.896;2022-10-16T09:11:57;102051.03;;;15.35;67.56
46942;BME280;32676;52.630;4.896;2022-10-16T09:14:40;102037.78;;;15.35;66.90
46942;BME280;32676;52.630;4.896;2022-10-16T09:17:21;102043.88;;;15.37;66.90
46942;BME280;32676;52.630;4.896;2022-10-16T09:19:53;102055.31;;;15.39;66.92
46942;BME280;32676;52.630;4.896;2022-10-16T09:22:26;102071.97;;;15.43;67.32
46942;BME280;32676;52.630;4.896;2022-10-16T09:24:54;102080.75;;;15.45;67.23
46942;BME280;32676;52.630;4.896;2022-10-16T09:27:20;102073.69;;;15.44;67.19
46942;BME280;32676;52.630;4.896;2022-10-16T09:29:47;102079.00;;;15.44;67.34
46942;BME280;32676;52.630;4.896;2022-10-16T09:32:18;102076.31;;;15.45;67.09
46942;BME280;32676;52.630;4.896;2022-10-16T09:34:48;102081.56;;;15.47;66.61
46942;BME280;32676;52.630;4.896;2022-10-16T09:37:18;102086.81;;;15.48;66.40
46942;BME280;32676;52.630;4.896;2022-10-16T09:39:45;102105.19;;;15.53;66.03
46942;BME280;32676;52.630;4.896;2022-10-16T09:42:14;102124.44;;;15.58;66.02
46942;BME280;32676;52.630;4.896;2022-10-16T09:44:41;102153.34;;;15.66;66.02
46942;BME280;32676;52.630;4.896;2022-10-16T09:47:14;102191.13;;;15.72;65.75
46942;BME280;32676;52.630;4.896;2022-10-16T09:49:53;102213.91;;;15.80;65.73
46942;BME280;32676;52.630;4.896;2022-10-16T09:52:22;102226.13;;;15.84;65.82
46942;BME280;32676;52.630;4.896;2022-10-16T09:54:50;102222.75;;;15.79;66.30
46942;BME280;32676;52.630;4.896;2022-10-16T09:57:17;102235.81;;;15.85;65.86
46942;BME280;32676;52.630;4.896;2022-10-16T09:59:47;102145.50;;;15.34;65.33
46942;BME280;32676;52.630;4.896;2022-10-16T10:02:16;102253.31;;;15.90;64.87
46942;BME280;32676;52.630;4.896;2022-10-16T10:04:48;102266.63;;;15.89;64.97
46942;BME280;32676;52.630;4.896;2022-10-16T10:07:23;102277.25;;;15.87;65.23
46942;BME280;32676;52.630;4.896;2022-10-16T10:09:50;102321.72;;;16.07;65.27
46942;BME280;32676;52.630;4.896;2022-10-16T10:12:19;102355.06;;;16.15;65.36
46942;BME280;32676;52.630;4.896;2022-10-16T10:14:47;102368.53;;;16.08;65.66
46942;BME280;32676;52.630;4.896;2022-10-16T10:17:17;102389.34;;;16.21;65.72
46942;BME280;32676;52.630;4.896;2022-10-16T10:19:50;102403.34;;;16.26;65.66
46942;BME280;32676;52.630;4.896;2022-10-16T10:22:23;102406.81;;;16.28;65.78
46942;BME280;32676;52.630;4.896;2022-10-16T10:24:58;102410.31;;;16.30;65.78
46942;BME280;32676;52.630;4.896;2022-10-16T10:27:32;102423.50;;;16.31;65.98
46942;BME280;32676;52.630;4.896;2022-10-16T10:30:06;102412.97;;;16.30;66.06
46942;BME280;32676;52.630;4.896;2022-10-16T10:32:38;102416.44;;;16.32;66.13
46942;BME280;32676;52.630;4.896;2022-10-16T10:35:15;102423.63;;;16.28;66.33
46942;BME280;32676;52.630;4.896;2022-10-16T10:38:02;102460.31;;;16.42;66.82
46942;BME280;32676;52.630;4.896;2022-10-16T10:40:42;102459.72;;;16.34;66.48
46942;BME280;32676;52.630;4.896;2022-10-16T10:43:24;102474.66;;;16.37;65.97
46942;BME280;32676;52.630;4.896;2022-10-16T10:45:59;102492.81;;;16.50;65.56
46942;BME280;32676;52.630;4.896;2022-10-16T10:48:47;102484.94;;;16.47;65.35
46942;BME280;32676;52.630;4.896;2022-10-16T10:51:22;102513.03;;;16.55;65.36
46942;BME280;32676;52.630;4.896;2022-10-16T10:54:01;102559.50;;;16.68;64.98
46942;BME280;32676;52.630;4.896;2022-10-16T10:56:42;102592.06;;;16.75;64.77
46942;BME280;32676;52.630;4.896;2022-10-16T11:02:15;102613.13;;;16.81;64.51
46942;BME280;32676;52.630;4.896;2022-10-16T11:07:34;102638.66;;;16.86;64.27
46942;BME280;32676;52.630;4.896;2022-10-16T11:10:12;102573.31;;;16.49;64.04
46942;BME280;32676;52.630;4.896;2022-10-16T11:12:42;102635.25;;;16.81;63.65
46942;BME280;32676;52.630;4.896;2022-10-16T11:15:14;102652.66;;;16.92;62.79
46942;BME280;32676;52.630;4.896;2022-10-16T11:17:44;102636.03;;;16.85;62.95
46942;BME280;32676;52.630;4.896;2022-10-16T11:20:18;102651.00;;;16.87;63.38
46942;BME280;32676;52.630;4.896;2022-10-16T11:22:49;102637.06;;;16.79;62.84
46942;BME280;32676;52.630;4.896;2022-10-16T11:25:21;102677.28;;;16.97;63.15
46942;BME280;32676;52.630;4.896;2022-10-16T11:27:52;102693.06;;;17.03;63.70
46942;BME280;32676;52.630;4.896;2022-10-16T11:30:22;102694.97;;;16.98;63.53
46942;BME280;32676;52.630;4.896;2022-10-16T11:32:54;102717.09;;;16.98;64.15
46942;BME280;32676;52.630;4.896;2022-10-16T11:35:37;102783.63;;;17.25;64.66
46942;BME280;32676;52.630;4.896;2022-10-16T11:38:13;102756.31;;;17.20;63.43
46942;BME280;32676;52.630;4.896;2022-10-16T11:40:43;102736.03;;;17.17;63.34
46942;BME280;32676;52.630;4.896;2022-10-16T11:43:17;102681.03;;;16.89;63.81
46942;BME280;32676;52.630;4.896;2022-10-16T11:45:49;102703.50;;;17.09;63.79
46942;BME280;32676;52.630;4.896;2022-10-16T11:48:23;102670.06;;;17.02;64.31
46942;BME280;32676;52.630;4.896;2022-10-16T11:50:53;102655.97;;;17.00;64.75
46942;BME280;32676;52.630;4.896;2022-10-16T11:53:28;102647.16;;;16.98;65.05
46942;BME280;32676;52.630;4.896;2022-10-16T11:55:59;102672.75;;;17.00;64.66
46942;BME280;32676;52.630;4.896;2022-10-16T11:58:28;102724.56;;;17.15;64.64
46942;BME280;32676;52.630;4.896;2022-10-16T12:01:04;102731.53;;;17.19;64.02
46942;BME280;32676;52.630;4.896;2022-10-16T12:03:41;102695.78;;;17.00;63.86
46942;BME280;32676;52.630;4.896;2022-10-16T12:09:01;102701.88;;;17.03;61.65
46942;BME280;32676;52.630;4.896;2022-10-16T12:11:36;102719.16;;;17.18;61.69
46942;BME280;32676;52.630;4.896;2022-10-16T12:14:05;102708.03;;;17.05;61.45
46942;BME280;32676;52.630;4.896;2022-10-16T12:16:33;102728.13;;;17.14;60.88
46942;BME280;32676;52.630;4.896;2022-10-16T12:19:10;102761.38;;;17.27;60.30
46942;BME280;32676;52.630;4.896;2022-10-16T12:21:37;102766.63;;;17.31;60.26
46942;BME280;32676;52.630;4.896;2022-10-16T12:24:04;102778.91;;;17.35;60.41
46942;BME280;32676;52.630;4.896;2022-10-16T12:26:33;102789.72;;;17.29;60.39
46942;BME280;32676;52.630;4.896;2022-10-16T12:29:13;102838.75;;;17.48;60.21
46942;BME280;32676;52.630;4.896;2022-10-16T12:31:44;102866.97;;;17.54;60.20
46942;BME280;32676;52.630;4.896;2022-10-16T12:34:20;102876.63;;;17.56;60.39
46942;BME280;32676;52.630;4.896;2022-10-16T12:36:49;102892.53;;;17.58;60.17
46942;BME280;32676;52.630;4.896;2022-10-16T12:39:21;102904.22;;;17.52;60.43
46942;BME280;32676;52.630;4.896;2022-10-16T12:42:00;102916.16;;;17.69;60.34
46942;BME280;32676;52.630;4.896;2022-10-16T12:44:32;102905.56;;;17.67;60.21
46942;BME280;32676;52.630;4.896;2022-10-16T12:47:00;102895.94;;;17.63;59.97
46942;BME280;32676;52.630;4.896;2022-10-16T12:49:31;102870.28;;;17.60;59.88
46942;BME280;32676;52.630;4.896;2022-10-16T12:51:59;102884.41;;;17.62;60.13
46942;BME280;32676;52.630;4.896;2022-10-16T12:54:29;102886.16;;;17.63;60.47
46942;BME280;32676;52.630;4.896;2022-10-16T12:57:19;102928.44;;;17.73;60.96
46942;BME280;32676;52.630;4.896;2022-10-16T13:00:00;102950.41;;;17.79;60.86
46942;BME280;32676;52.630;4.896;2022-10-16T13:02:48;102951.28;;;17.80;61.03
46942;BME280;32676;52.630;4.896;2022-10-16T13:05:26;102935.41;;;17.77;61.13
46942;BME280;32676;52.630;4.896;2022-10-16T13:08:03;102913.34;;;17.73;60.84
46942;BME280;32676;52.630;4.896;2022-10-16T13:10:37;102907.50;;;17.60;60.48